Herbert C Jackson — WL3972 — position and weather

sailwx.info

Track history (hours):
 
Tides and Currents Weather Stations Pressure Air Temp Water Temp Dewpoint Dewpoint Depression Visibility Wind Speed Wind Dir Waves Ship Positions

Herbert C Jackson

Owner: THE INTERLAKE STEAMSHIP COMPANY, Middleburg Heights, OH. More information available from US FCC via Universal Licensing System and Coast Guard Vessel Documentation Center.

Last reported at 2015-Aug-02 06:00 UTC. Time now 2015-Aug-02 08:20 UTC.
Position N 43°48' W 082°30'.

Length 239 m; draft 8.4 m.

Type: Cargo ship. MMSI: 366904930.

Wind from 250 at 11 knots

Barometer 1010.3 mb
Air temperature 20.1 ° C
Water temperature 18.6 ° C

Date/timePositionNaut miles runAvg speedWind from/ knotsBaromVisibWave heightAir tempDewpointWater temp
2015-Aug-02 06:00N 43°48' W 082°30'3712.3 250 / 111010.3 20.1 18.6
2015-Aug-02 03:00N 44°24' W 082°42'6513.0 260 / 41010.3 21.9 18.5
2015-Aug-01 22:00N 45°24' W 083°18'7 7.3 170 / 61009.3 20.2 16.7
2015-Aug-01 21:00N 45°30' W 083°24'1514.6 320 / 61009.6 20.5 17.3
2015-Aug-01 20:00N 45°42' W 083°36'817.1 300 / 121009.6 19.5 17.3
2015-Aug-01 19:32N 45°48' W 083°44'1612.1
2015-Aug-01 18:12N 46°02' W 083°55'2 9.1
2015-Aug-01 18:00N 46°00' W 083°54'27 9.0 140 / 131009.3 20.8 12.2
2015-Aug-01 15:00N 46°24' W 084°12'10 5.1 310 / 101010.3 18.2 15.7
2015-Aug-01 13:00N 46°30' W 084°24'0 0.0 270 / 81010.5 15.3 15.5
2015-Aug-01 12:00N 46°30' W 084°24'0 0.0 280 / 41010.2 14.6 15.5
2015-Aug-01 11:00N 46°30' W 084°24'8 8.3 320 / 51010.2 14.2 15.5
2015-Aug-01 10:00N 46°30' W 084°36'7 7.3 260 / 31009.8 15.1 15.0
2015-Aug-01 09:00N 46°36' W 084°42'1514.6 290 / 41009.8 14.7 15.1
2015-Aug-01 08:00N 46°48' W 084°54'1413.7 300 / 91009.8 13.1 14.1
2015-Aug-01 07:00N 46°54' W 085°12'2512.7 270 / 71009.8 11.1 9.8
2015-Aug-01 05:00N 46°48' W 085°48'1212.3 260 / 91010.2 10.8 9.8
2015-Aug-01 04:00N 46°48' W 086°06'1817.5 300 / 91010.2 11.7 8.8
2015-Aug-01 03:00N 46°42' W 086°30'1212.3 290 / 121010.5 13.1 10.0
2015-Aug-01 02:00N 46°42' W 086°48'1413.7 300 / 151010.5 15.2 10.5
2015-Aug-01 01:00N 46°36' W 087°06'1212.4 300 / 141010.5 16.9 14.3
2015-Aug-01 00:00N 46°36' W 087°24'0 0.0 320 / 151010.5 22.2 15.2
2015-Jul-31 23:00N 46°36' W 087°24'0 0.0 310 / 91010.5 22.8 15.1
2015-Jul-31 22:00N 46°36' W 087°24'0 0.0 300 / 101010.8 22.4 15.2
2015-Jul-31 21:00N 46°36' W 087°24'0 0.0 340 / 81010.5 19.2 15.1
2015-Jul-31 20:00N 46°36' W 087°24'0 0.0 320 / 111010.5 18.7 15.3
2015-Jul-31 19:00N 46°36' W 087°24'0 0.0 330 / 121010.2 19.9 15.2
2015-Jul-31 18:00N 46°36' W 087°24'8 8.2 320 / 131010.2 23.3 15.3
2015-Jul-31 17:00N 46°36' W 087°12'1212.4 330 / 121009.8 17.5 14.1
2015-Jul-31 16:00N 46°36' W 086°54'1413.7 290 / 211009.1 16.6 12.3
2015-Jul-31 15:00N 46°42' W 086°36'1212.3 280 / 201008.5 14.6 9.8
2015-Jul-31 14:00N 46°42' W 086°18'2512.7 270 / 211008.1 13.8 10.3
2015-Jul-31 12:00N 46°48' W 085°42'1212.3 250 / 181008.1 15.1 8.0
2015-Jul-31 11:00N 46°48' W 085°24'1212.3 250 / 171008.1 13.5 9.5
2015-Jul-31 10:00N 46°48' W 085°06'714.2 270 / 111008.1 14.1 14.2
2015-Jul-31 09:30N 46°46' W 084°56'5 9.2
2015-Jul-31 09:00N 46°42' W 084°54'817.7 250 / 81008.8 16.6 13.9
2015-Jul-31 08:34N 46°36' W 084°47'712.3
2015-Jul-31 08:00N 46°30' W 084°42'715.2 270 / 101008.5 17.6 15.2
2015-Jul-31 07:34N 46°27' W 084°33'712.0
2015-Jul-31 07:00N 46°30' W 084°24'4 4.1 220 / 61009.1 17.5 15.7
2015-Jul-31 06:00N 46°30' W 084°18'0 0.0 100 / 21009.3 16.4 16.5
2015-Jul-31 05:00N 46°30' W 084°18'713.7 260 / 21009.6 16.1 15.7
2015-Jul-31 04:28N 46°23' W 084°14'611.6
2015-Jul-31 04:00N 46°18' W 084°12'5 6.8 220 / 81009.9 17.6 16.8
2015-Jul-31 03:15N 46°15' W 084°06'311.9
2015-Jul-31 03:00N 46°12' W 084°06'5 9.3 140 / 31010.3 17.8 17.4
2015-Jul-31 02:25N 46°08' W 084°01'2 4.9
2015-Jul-31 02:00N 46°06' W 084°00'815.5 320 / 71010.6 19.3 14.8
2015-Jul-31 01:31N 46°00' W 083°53'9612.7
2015-Jul-30 18:00N 44°48' W 082°24'6112.3 290 / 141009.6 21.0 17.9
2015-Jul-30 13:00N 43°48' W 082°06'1212.0 250 / 211011.6 20.7 18.5
2015-Jul-30 12:00N 43°36' W 082°06'1312.8 250 / 221011.6 20.5 18.6
2015-Jul-30 11:00N 43°24' W 082°12'1312.8 270 / 201011.6 20.7 19.0
2015-Jul-30 10:00N 43°12' W 082°18'1312.8 280 / 231011.3 20.5 19.7
2015-Jul-30 09:00N 43°00' W 082°24'7 7.4 270 / 181011.3 19.3 19.6
2015-Jul-30 08:00N 42°54' W 082°30'1212.0 270 / 101011.6 19.4 18.8
2015-Jul-30 07:00N 42°42' W 082°30'7 7.4 260 / 61012.0 20.4 19.2
2015-Jul-30 06:00N 42°36' W 082°36'7 7.5 290 / 71012.7 21.9 19.2
2015-Jul-30 05:00N 42°30' W 082°42'1110.7 270 / 151012.8 23.7 20.3
2015-Jul-30 04:00N 42°24' W 082°54'2010.0 270 / 121012.8 24.7 23.1
2015-Jul-30 02:00N 42°06' W 083°06'6 6.0 260 / 121012.1 26.2 23.2
2015-Jul-30 01:00N 42°00' W 083°06'1110.8 250 / 151011.3 26.5 23.3
2015-Jul-30 00:00N 41°54' W 082°54'1313.4 220 / 171011.3 26.3 23.8
2015-Jul-29 23:00N 41°54' W 082°36'2311.6 220 / 91011.7 25.2 23.9
2015-Jul-29 21:00N 41°48' W 082°06'4113.6 140 / 71012.0 27.6 23.2
2015-Jul-29 18:00N 41°54' W 081°12'1313.4 240 / 61013.4 26.5 22.8
2015-Jul-29 17:00N 41°54' W 080°54'4 4.5 290 / 31014.010.8 25.6 23.1
2015-Jul-29 16:00N 41°54' W 080°48'0 0.0 290 / 91014.7 26.7 22.1
2015-Jul-29 15:00N 41°54' W 080°48'0 0.0 180 / 71014.7 28.6 22.2
2015-Jul-29 13:00N 41°54' W 080°48'0 0.0 160 / 111015.1 25.0 22.4
2015-Jul-29 12:00N 41°54' W 080°48'0 0.0 160 / 111014.7 23.1 22.4
2015-Jul-29 11:00N 41°54' W 080°48'0 0.0 160 / 71014.7 22.5 22.5
2015-Jul-29 10:00N 41°54' W 080°48'9 8.9 150 / 61014.7 22.8 22.7
2015-Jul-29 09:00N 41°54' W 081°00'1313.4 090 / 71014.4 23.4 22.1
2015-Jul-29 08:00N 41°54' W 081°18'1313.4 100 / 101014.0 25.7 22.5
2015-Jul-29 07:00N 41°54' W 081°36'4912.3 110 / 61014.7 25.3 22.5
2015-Jul-29 03:00N 41°54' W 082°42'9 8.9 110 / 91015.7 26.4 23.4
2015-Jul-29 02:00N 41°54' W 082°54'1110.8 100 / 131014.4 26.3 22.8
2015-Jul-29 01:00N 42°00' W 083°06'6 6.0 100 / 121014.4 26.2 22.7
2015-Jul-29 00:00N 42°06' W 083°06'1212.0 190 / 41014.5 26.9 22.4
2015-Jul-28 23:00N 42°18' W 083°06'1110.7 190 / 101014.5 28.4 22.6
2015-Jul-28 22:00N 42°24' W 082°54'1110.7 080 / 91015.2 27.3 22.2
2015-Jul-28 21:00N 42°30' W 082°42'1110.7 150 / 21016.2 28.5 19.4
2015-Jul-28 20:00N 42°36' W 082°30'18 9.0 210 / 81016.4 29.3 19.1
2015-Jul-28 18:00N 42°54' W 082°30'1312.8 170 / 51016.7 29.7 19.6
2015-Jul-28 17:00N 43°06' W 082°24'1212.0 060 / 101017.4 25.1 18.4
2015-Jul-28 16:00N 43°18' W 082°24'1212.0 120 / 111017.1 23.4 18.9
2015-Jul-28 15:00N 43°30' W 082°24'1312.8 140 / 71017.1 22.9 18.5
2015-Jul-28 14:00N 43°42' W 082°30'1212.0 150 / 61017.4 22.3 17.6
2015-Jul-28 13:00N 43°54' W 082°30'8312.9 130 / 11017.4 22.1 17.8
2015-Jul-28 06:33N 45°13' W 083°06'1212.1
2015-Jul-28 05:33N 45°22' W 083°18'815.1
2015-Jul-28 05:00N 45°24' W 083°30'410.1 240 / 71017.1 23.5 17.9
2015-Jul-28 04:34N 45°25' W 083°36'8 5.3
2015-Jul-28 03:00N 45°24' W 083°48'0 0.0 200 / 21016.7 25.1 18.6
2015-Jul-28 02:00N 45°24' W 083°48'0 0.0 240 / 21016.4 26.2 18.8
2015-Jul-28 01:00N 45°24' W 083°48'0 0.0 300 / 21015.7 27.6 19.2
2015-Jul-28 00:00N 45°24' W 083°48'0 0.0 350 / 11015.7 29.7 19.2
2015-Jul-27 23:00N 45°24' W 083°48'0 0.0 060 / 11015.7 28.9 19.2
2015-Jul-27 22:00N 45°24' W 083°48'0 0.0 080 / 21016.0 26.8 19.0
2015-Jul-27 21:00N 45°24' W 083°48'0 0.0 070 / 21016.0 25.9 18.5
2015-Jul-27 20:00N 45°24' W 083°48'0 0.0 020 / 41016.4 26.2 18.4
2015-Jul-27 19:00N 45°24' W 083°48'0 0.0 050 / 11016.4 25.3 18.3
2015-Jul-27 18:00N 45°24' W 083°48'0 0.0 060 / 31016.7 23.7 18.1
2015-Jul-27 17:00N 45°24' W 083°48'0 0.0 360 / 21016.7 23.6 18.2
2015-Jul-27 16:00N 45°24' W 083°48'0 0.0 340 / 71017.1 22.5 17.9
2015-Jul-27 15:00N 45°24' W 083°48'0 0.0 330 / 61017.1 22.9 17.9
2015-Jul-27 14:00N 45°24' W 083°48'0 0.0 350 / 51016.7 22.4 17.9
2015-Jul-27 13:00N 45°24' W 083°48'2 4.4 300 / 51016.4 21.6 18.3
2015-Jul-27 12:27N 45°26' W 083°45'2 5.2
2015-Jul-27 12:00N 45°24' W 083°48'4 4.2 290 / 81016.0 21.3 18.1
2015-Jul-27 11:00N 45°24' W 083°42'8 8.4 270 / 101015.7 20.9 18.3
2015-Jul-27 10:00N 45°24' W 083°30'10810.8 270 / 111014.3 20.8 18.0
2015-Jul-27 00:00N 43°54' W 082°06'3612.1 200 / 31014.7 20.5 17.7
2015-Jul-26 21:00N 43°18' W 082°12'3310.9 350 / 71015.0 21.8 18.9
2015-Jul-26 18:00N 42°48' W 082°30'1212.0 320 / 81015.4 26.5 18.5
2015-Jul-26 17:00N 42°36' W 082°30'32 8.0 320 / 71015.0 26.0 18.7
2015-Jul-26 13:00N 42°18' W 083°06'4 4.4 050 / 41015.2 23.9 25.6
2015-Jul-26 12:00N 42°18' W 083°12'0 0.0 120 / 21014.8 22.4 26.2
2015-Jul-26 10:00N 42°18' W 083°12'0 0.0 030 / 61013.8 21.6 26.4
2015-Jul-26 08:00N 42°18' W 083°12'0 0.0 290 / 21013.5 22.5 25.8
2015-Jul-26 07:00N 42°18' W 083°12'4 4.4 280 / 11013.5 22.9 26.3
2015-Jul-26 06:00N 42°18' W 083°06'9 3.0 180 / 21013.5 22.4 25.1
2015-Jul-26 03:00N 42°18' W 082°54'15 7.5 330 / 31013.1 23.8 21.1
2015-Jul-26 01:00N 42°30' W 082°42'7 7.5 080 / 111012.5 23.1 19.0
2015-Jul-26 00:00N 42°36' W 082°36'13 6.4 050 / 41012.5 22.5 18.4
2015-Jul-25 22:00N 42°48' W 082°30'7 7.4 190 / 61011.0 28.3 18.5
2015-Jul-25 21:00N 42°54' W 082°24'1212.0 250 / 71011.3 28.7 18.2
2015-Jul-25 20:00N 43°06' W 082°24'2412.0 210 / 161009.910.8 0.527.3 18.1
2015-Jul-25 18:00N 43°30' W 082°24'1312.8 200 / 131011.3 24.7 17.3
2015-Jul-25 17:00N 43°42' W 082°30'1212.0 200 / 121011.6 23.9 16.5
2015-Jul-25 16:00N 43°54' W 082°30'7512.5 150 / 121012.0 21.3 16.6
2015-Jul-25 10:00N 45°06' W 083°00'1514.7 200 / 201009.3 20.7 15.5
2015-Jul-25 09:00N 45°18' W 083°12'1514.7 180 / 171009.9 20.3 14.5
2015-Jul-25 08:00N 45°30' W 083°24'2211.0 180 / 121010.3 20.6 15.1
2015-Jul-25 06:00N 45°48' W 083°42'715.5 160 / 121010.3 21.1 16.1
2015-Jul-25 05:32N 45°53' W 083°49'814.4
2015-Jul-25 05:00N 46°00' W 083°54'2 3.6 160 / 141010.6 21.8 14.3
2015-Jul-25 04:23N 46°02' W 083°55'513.1
2015-Jul-25 04:00N 46°06' W 084°00'3 7.3 110 / 21011.3 21.0 13.4
2015-Jul-25 03:32N 46°09' W 084°02'4 7.4
2015-Jul-25 03:00N 46°12' W 084°06'7 7.3 150 / 101011.3 22.3 15.8
2015-Jul-25 02:00N 46°18' W 084°12'7 7.3 150 / 71011.3 22.8 15.5
2015-Jul-25 01:00N 46°24' W 084°18'6 6.0 160 / 41011.6 23.2 15.1
2015-Jul-25 00:00N 46°30' W 084°18'4 4.1 210 / 41012.0 24.6 14.8
2015-Jul-24 23:00N 46°30' W 084°24'3 4.3 200 / 91012.2 25.1 15.0
2015-Jul-24 22:19N 46°28' W 084°28'2 7.3
2015-Jul-24 22:00N 46°30' W 084°30'1010.2 220 / 141012.5 24.4 14.4
2015-Jul-24 21:00N 46°36' W 084°42'1010.2 220 / 161011.9 23.2 14.8
2015-Jul-24 20:00N 46°42' W 084°54'2110.7 180 / 211010.2 22.4 12.6
2015-Jul-24 18:00N 46°48' W 085°24'1212.3 060 / 101011.9 19.9 6.6
2015-Jul-24 17:00N 46°48' W 085°42'1212.3 040 / 81012.2 19.1 5.8
2015-Jul-24 16:00N 46°48' W 086°00'41 1.7 240 / 61013.510.8 23.1 6.5
2015-Jul-23 16:00N 46°48' W 085°00'713.0 100 / 81015.6 17.6 12.7
2015-Jul-23 15:29N 46°43' W 084°53'816.5
2015-Jul-23 15:00N 46°36' W 084°48'510.3 240 / 81015.6 15.2 14.1
2015-Jul-23 14:32N 46°34' W 084°42'610.2
2015-Jul-23 14:00N 46°30' W 084°36'612.9 170 / 41015.6 15.9 14.0
2015-Jul-23 13:33N 46°28' W 084°29'8 4.9
2015-Jul-23 12:00N 46°30' W 084°18'2 3.9 110 / 41015.4 13.7 14.0
2015-Jul-23 11:33N 46°28' W 084°17'610.3
2015-Jul-23 11:00N 46°24' W 084°12'3 6.9 310 / 41014.7 11.3 14.0
2015-Jul-23 10:33N 46°21' W 084°12'5 8.9
2015-Jul-23 10:00N 46°18' W 084°06'3 6.8 270 / 41014.7 11.0 13.7
2015-Jul-23 09:33N 46°15' W 084°06'3 5.4
2015-Jul-23 09:00N 46°12' W 084°06'715.3 340 / 41014.0 12.9 14.7
2015-Jul-23 08:33N 46°06' W 084°01'814.1
2015-Jul-23 08:00N 46°00' W 083°54'2 5.5 280 / 101014.0 13.7 14.3
2015-Jul-23 07:33N 45°58' W 083°53'1312.8
2015-Jul-23 06:33N 45°47' W 083°43'  
Track history (hours):
 
Tides and Currents Weather Stations Pressure Air Temp Water Temp Dewpoint Dewpoint Depression Visibility Wind Speed Wind Dir Waves Ship Positions

Herbert C Jackson

Owner: THE INTERLAKE STEAMSHIP COMPANY, Middleburg Heights, OH. More information available from US FCC via Universal Licensing System and Coast Guard Vessel Documentation Center.

Last reported at 2015-Aug-02 06:00 UTC. Time now 2015-Aug-02 08:20 UTC.
Position N 43°48' W 082°30'.

Length 239 m; draft 8.4 m.

Type: Cargo ship. MMSI: 366904930.

Wind from 250 at 11 knots

Barometer 1010.3 mb
Air temperature 20.1 ° C
Water temperature 18.6 ° C

Date/timePositionNaut miles runAvg speedWind from/ knotsBaromVisibWave heightAir tempDewpointWater temp
2015-Aug-02 06:00N 43°48' W 082°30'3712.3 250 / 111010.3 20.1 18.6
2015-Aug-02 03:00N 44°24' W 082°42'6513.0 260 / 41010.3 21.9 18.5
2015-Aug-01 22:00N 45°24' W 083°18'7 7.3 170 / 61009.3 20.2 16.7
2015-Aug-01 21:00N 45°30' W 083°24'1514.6 320 / 61009.6 20.5 17.3
2015-Aug-01 20:00N 45°42' W 083°36'817.1 300 / 121009.6 19.5 17.3
2015-Aug-01 19:32N 45°48' W 083°44'1612.1
2015-Aug-01 18:12N 46°02' W 083°55'2 9.1
2015-Aug-01 18:00N 46°00' W 083°54'27 9.0 140 / 131009.3 20.8 12.2
2015-Aug-01 15:00N 46°24' W 084°12'10 5.1 310 / 101010.3 18.2 15.7
2015-Aug-01 13:00N 46°30' W 084°24'0 0.0 270 / 81010.5 15.3 15.5
2015-Aug-01 12:00N 46°30' W 084°24'0 0.0 280 / 41010.2 14.6 15.5
2015-Aug-01 11:00N 46°30' W 084°24'8 8.3 320 / 51010.2 14.2 15.5
2015-Aug-01 10:00N 46°30' W 084°36'7 7.3 260 / 31009.8 15.1 15.0
2015-Aug-01 09:00N 46°36' W 084°42'1514.6 290 / 41009.8 14.7 15.1
2015-Aug-01 08:00N 46°48' W 084°54'1413.7 300 / 91009.8 13.1 14.1
2015-Aug-01 07:00N 46°54' W 085°12'2512.7 270 / 71009.8 11.1 9.8
2015-Aug-01 05:00N 46°48' W 085°48'1212.3 260 / 91010.2 10.8 9.8
2015-Aug-01 04:00N 46°48' W 086°06'1817.5 300 / 91010.2 11.7 8.8
2015-Aug-01 03:00N 46°42' W 086°30'1212.3 290 / 121010.5 13.1 10.0
2015-Aug-01 02:00N 46°42' W 086°48'1413.7 300 / 151010.5 15.2 10.5
2015-Aug-01 01:00N 46°36' W 087°06'1212.4 300 / 141010.5 16.9 14.3
2015-Aug-01 00:00N 46°36' W 087°24'0 0.0 320 / 151010.5 22.2 15.2
2015-Jul-31 23:00N 46°36' W 087°24'0 0.0 310 / 91010.5 22.8 15.1
2015-Jul-31 22:00N 46°36' W 087°24'0 0.0 300 / 101010.8 22.4 15.2
2015-Jul-31 21:00N 46°36' W 087°24'0 0.0 340 / 81010.5 19.2 15.1
2015-Jul-31 20:00N 46°36' W 087°24'0 0.0 320 / 111010.5 18.7 15.3
2015-Jul-31 19:00N 46°36' W 087°24'0 0.0 330 / 121010.2 19.9 15.2
2015-Jul-31 18:00N 46°36' W 087°24'8 8.2 320 / 131010.2 23.3 15.3
2015-Jul-31 17:00N 46°36' W 087°12'1212.4 330 / 121009.8 17.5 14.1
2015-Jul-31 16:00N 46°36' W 086°54'1413.7 290 / 211009.1 16.6 12.3
2015-Jul-31 15:00N 46°42' W 086°36'1212.3 280 / 201008.5 14.6 9.8
2015-Jul-31 14:00N 46°42' W 086°18'2512.7 270 / 211008.1 13.8 10.3
2015-Jul-31 12:00N 46°48' W 085°42'1212.3 250 / 181008.1 15.1 8.0
2015-Jul-31 11:00N 46°48' W 085°24'1212.3 250 / 171008.1 13.5 9.5
2015-Jul-31 10:00N 46°48' W 085°06'714.2 270 / 111008.1 14.1 14.2
2015-Jul-31 09:30N 46°46' W 084°56'5 9.2
2015-Jul-31 09:00N 46°42' W 084°54'817.7 250 / 81008.8 16.6 13.9
2015-Jul-31 08:34N 46°36' W 084°47'712.3
2015-Jul-31 08:00N 46°30' W 084°42'715.2 270 / 101008.5 17.6 15.2
2015-Jul-31 07:34N 46°27' W 084°33'712.0
2015-Jul-31 07:00N 46°30' W 084°24'4 4.1 220 / 61009.1 17.5 15.7
2015-Jul-31 06:00N 46°30' W 084°18'0 0.0 100 / 21009.3 16.4 16.5
2015-Jul-31 05:00N 46°30' W 084°18'713.7 260 / 21009.6 16.1 15.7
2015-Jul-31 04:28N 46°23' W 084°14'611.6
2015-Jul-31 04:00N 46°18' W 084°12'5 6.8 220 / 81009.9 17.6 16.8
2015-Jul-31 03:15N 46°15' W 084°06'311.9
2015-Jul-31 03:00N 46°12' W 084°06'5 9.3 140 / 31010.3 17.8 17.4
2015-Jul-31 02:25N 46°08' W 084°01'2 4.9
2015-Jul-31 02:00N 46°06' W 084°00'815.5 320 / 71010.6 19.3 14.8
2015-Jul-31 01:31N 46°00' W 083°53'9612.7
2015-Jul-30 18:00N 44°48' W 082°24'6112.3 290 / 141009.6 21.0 17.9
2015-Jul-30 13:00N 43°48' W 082°06'1212.0 250 / 211011.6 20.7 18.5
2015-Jul-30 12:00N 43°36' W 082°06'1312.8 250 / 221011.6 20.5 18.6
2015-Jul-30 11:00N 43°24' W 082°12'1312.8 270 / 201011.6 20.7 19.0
2015-Jul-30 10:00N 43°12' W 082°18'1312.8 280 / 231011.3 20.5 19.7
2015-Jul-30 09:00N 43°00' W 082°24'7 7.4 270 / 181011.3 19.3 19.6
2015-Jul-30 08:00N 42°54' W 082°30'1212.0 270 / 101011.6 19.4 18.8
2015-Jul-30 07:00N 42°42' W 082°30'7 7.4 260 / 61012.0 20.4 19.2
2015-Jul-30 06:00N 42°36' W 082°36'7 7.5 290 / 71012.7 21.9 19.2
2015-Jul-30 05:00N 42°30' W 082°42'1110.7 270 / 151012.8 23.7 20.3
2015-Jul-30 04:00N 42°24' W 082°54'2010.0 270 / 121012.8 24.7 23.1
2015-Jul-30 02:00N 42°06' W 083°06'6 6.0 260 / 121012.1 26.2 23.2
2015-Jul-30 01:00N 42°00' W 083°06'1110.8 250 / 151011.3 26.5 23.3
2015-Jul-30 00:00N 41°54' W 082°54'1313.4 220 / 171011.3 26.3 23.8
2015-Jul-29 23:00N 41°54' W 082°36'2311.6 220 / 91011.7 25.2 23.9
2015-Jul-29 21:00N 41°48' W 082°06'4113.6 140 / 71012.0 27.6 23.2
2015-Jul-29 18:00N 41°54' W 081°12'1313.4 240 / 61013.4 26.5 22.8
2015-Jul-29 17:00N 41°54' W 080°54'4 4.5 290 / 31014.010.8 25.6 23.1
2015-Jul-29 16:00N 41°54' W 080°48'0 0.0 290 / 91014.7 26.7 22.1
2015-Jul-29 15:00N 41°54' W 080°48'0 0.0 180 / 71014.7 28.6 22.2
2015-Jul-29 13:00N 41°54' W 080°48'0 0.0 160 / 111015.1 25.0 22.4
2015-Jul-29 12:00N 41°54' W 080°48'0 0.0 160 / 111014.7 23.1 22.4
2015-Jul-29 11:00N 41°54' W 080°48'0 0.0 160 / 71014.7 22.5 22.5
2015-Jul-29 10:00N 41°54' W 080°48'9 8.9 150 / 61014.7 22.8 22.7
2015-Jul-29 09:00N 41°54' W 081°00'1313.4 090 / 71014.4 23.4 22.1
2015-Jul-29 08:00N 41°54' W 081°18'1313.4 100 / 101014.0 25.7 22.5
2015-Jul-29 07:00N 41°54' W 081°36'4912.3 110 / 61014.7 25.3 22.5
2015-Jul-29 03:00N 41°54' W 082°42'9 8.9 110 / 91015.7 26.4 23.4
2015-Jul-29 02:00N 41°54' W 082°54'1110.8 100 / 131014.4 26.3 22.8
2015-Jul-29 01:00N 42°00' W 083°06'6 6.0 100 / 121014.4 26.2 22.7
2015-Jul-29 00:00N 42°06' W 083°06'1212.0 190 / 41014.5 26.9 22.4
2015-Jul-28 23:00N 42°18' W 083°06'1110.7 190 / 101014.5 28.4 22.6
2015-Jul-28 22:00N 42°24' W 082°54'1110.7 080 / 91015.2 27.3 22.2
2015-Jul-28 21:00N 42°30' W 082°42'1110.7 150 / 21016.2 28.5 19.4
2015-Jul-28 20:00N 42°36' W 082°30'18 9.0 210 / 81016.4 29.3 19.1
2015-Jul-28 18:00N 42°54' W 082°30'1312.8 170 / 51016.7 29.7 19.6
2015-Jul-28 17:00N 43°06' W 082°24'1212.0 060 / 101017.4 25.1 18.4
2015-Jul-28 16:00N 43°18' W 082°24'1212.0 120 / 111017.1 23.4 18.9
2015-Jul-28 15:00N 43°30' W 082°24'1312.8 140 / 71017.1 22.9 18.5
2015-Jul-28 14:00N 43°42' W 082°30'1212.0 150 / 61017.4 22.3 17.6
2015-Jul-28 13:00N 43°54' W 082°30'8312.9 130 / 11017.4 22.1 17.8
2015-Jul-28 06:33N 45°13' W 083°06'1212.1
2015-Jul-28 05:33N 45°22' W 083°18'815.1
2015-Jul-28 05:00N 45°24' W 083°30'410.1 240 / 71017.1 23.5 17.9
2015-Jul-28 04:34N 45°25' W 083°36'8 5.3
2015-Jul-28 03:00N 45°24' W 083°48'0 0.0 200 / 21016.7 25.1 18.6
2015-Jul-28 02:00N 45°24' W 083°48'0 0.0 240 / 21016.4 26.2 18.8
2015-Jul-28 01:00N 45°24' W 083°48'0 0.0 300 / 21015.7 27.6 19.2
2015-Jul-28 00:00N 45°24' W 083°48'0 0.0 350 / 11015.7 29.7 19.2
2015-Jul-27 23:00N 45°24' W 083°48'0 0.0 060 / 11015.7 28.9 19.2
2015-Jul-27 22:00N 45°24' W 083°48'0 0.0 080 / 21016.0 26.8 19.0
2015-Jul-27 21:00N 45°24' W 083°48'0 0.0 070 / 21016.0 25.9 18.5
2015-Jul-27 20:00N 45°24' W 083°48'0 0.0 020 / 41016.4 26.2 18.4
2015-Jul-27 19:00N 45°24' W 083°48'0 0.0 050 / 11016.4 25.3 18.3
2015-Jul-27 18:00N 45°24' W 083°48'0 0.0 060 / 31016.7 23.7 18.1
2015-Jul-27 17:00N 45°24' W 083°48'0 0.0 360 / 21016.7 23.6 18.2
2015-Jul-27 16:00N 45°24' W 083°48'0 0.0 340 / 71017.1 22.5 17.9
2015-Jul-27 15:00N 45°24' W 083°48'0 0.0 330 / 61017.1 22.9 17.9
2015-Jul-27 14:00N 45°24' W 083°48'0 0.0 350 / 51016.7 22.4 17.9
2015-Jul-27 13:00N 45°24' W 083°48'2 4.4 300 / 51016.4 21.6 18.3
2015-Jul-27 12:27N 45°26' W 083°45'2 5.2
2015-Jul-27 12:00N 45°24' W 083°48'4 4.2 290 / 81016.0 21.3 18.1
2015-Jul-27 11:00N 45°24' W 083°42'8 8.4 270 / 101015.7 20.9 18.3
2015-Jul-27 10:00N 45°24' W 083°30'10810.8 270 / 111014.3 20.8 18.0
2015-Jul-27 00:00N 43°54' W 082°06'3612.1 200 / 31014.7 20.5 17.7
2015-Jul-26 21:00N 43°18' W 082°12'3310.9 350 / 71015.0 21.8 18.9
2015-Jul-26 18:00N 42°48' W 082°30'1212.0 320 / 81015.4 26.5 18.5
2015-Jul-26 17:00N 42°36' W 082°30'32 8.0 320 / 71015.0 26.0 18.7
2015-Jul-26 13:00N 42°18' W 083°06'4 4.4 050 / 41015.2 23.9 25.6
2015-Jul-26 12:00N 42°18' W 083°12'0 0.0 120 / 21014.8 22.4 26.2
2015-Jul-26 10:00N 42°18' W 083°12'0 0.0 030 / 61013.8 21.6 26.4
2015-Jul-26 08:00N 42°18' W 083°12'0 0.0 290 / 21013.5 22.5 25.8
2015-Jul-26 07:00N 42°18' W 083°12'4 4.4 280 / 11013.5 22.9 26.3
2015-Jul-26 06:00N 42°18' W 083°06'9 3.0 180 / 21013.5 22.4 25.1
2015-Jul-26 03:00N 42°18' W 082°54'15 7.5 330 / 31013.1 23.8 21.1
2015-Jul-26 01:00N 42°30' W 082°42'7 7.5 080 / 111012.5 23.1 19.0
2015-Jul-26 00:00N 42°36' W 082°36'13 6.4 050 / 41012.5 22.5 18.4
2015-Jul-25 22:00N 42°48' W 082°30'7 7.4 190 / 61011.0 28.3 18.5
2015-Jul-25 21:00N 42°54' W 082°24'1212.0 250 / 71011.3 28.7 18.2
2015-Jul-25 20:00N 43°06' W 082°24'2412.0 210 / 161009.910.8 0.527.3 18.1
2015-Jul-25 18:00N 43°30' W 082°24'1312.8 200 / 131011.3 24.7 17.3
2015-Jul-25 17:00N 43°42' W 082°30'1212.0 200 / 121011.6 23.9 16.5
2015-Jul-25 16:00N 43°54' W 082°30'7512.5 150 / 121012.0 21.3 16.6
2015-Jul-25 10:00N 45°06' W 083°00'1514.7 200 / 201009.3 20.7 15.5
2015-Jul-25 09:00N 45°18' W 083°12'1514.7 180 / 171009.9 20.3 14.5
2015-Jul-25 08:00N 45°30' W 083°24'2211.0 180 / 121010.3 20.6 15.1
2015-Jul-25 06:00N 45°48' W 083°42'715.5 160 / 121010.3 21.1 16.1
2015-Jul-25 05:32N 45°53' W 083°49'814.4
2015-Jul-25 05:00N 46°00' W 083°54'2 3.6 160 / 141010.6 21.8 14.3
2015-Jul-25 04:23N 46°02' W 083°55'513.1
2015-Jul-25 04:00N 46°06' W 084°00'3 7.3 110 / 21011.3 21.0 13.4
2015-Jul-25 03:32N 46°09' W 084°02'4 7.4
2015-Jul-25 03:00N 46°12' W 084°06'7 7.3 150 / 101011.3 22.3 15.8
2015-Jul-25 02:00N 46°18' W 084°12'7 7.3 150 / 71011.3 22.8 15.5
2015-Jul-25 01:00N 46°24' W 084°18'6 6.0 160 / 41011.6 23.2 15.1
2015-Jul-25 00:00N 46°30' W 084°18'4 4.1 210 / 41012.0 24.6 14.8
2015-Jul-24 23:00N 46°30' W 084°24'3 4.3 200 / 91012.2 25.1 15.0
2015-Jul-24 22:19N 46°28' W 084°28'2 7.3
2015-Jul-24 22:00N 46°30' W 084°30'1010.2 220 / 141012.5 24.4 14.4
2015-Jul-24 21:00N 46°36' W 084°42'1010.2 220 / 161011.9 23.2 14.8
2015-Jul-24 20:00N 46°42' W 084°54'2110.7 180 / 211010.2 22.4 12.6
2015-Jul-24 18:00N 46°48' W 085°24'1212.3 060 / 101011.9 19.9 6.6
2015-Jul-24 17:00N 46°48' W 085°42'1212.3 040 / 81012.2 19.1 5.8
2015-Jul-24 16:00N 46°48' W 086°00'41 1.7 240 / 61013.510.8 23.1 6.5
2015-Jul-23 16:00N 46°48' W 085°00'713.0 100 / 81015.6 17.6 12.7
2015-Jul-23 15:29N 46°43' W 084°53'816.5
2015-Jul-23 15:00N 46°36' W 084°48'510.3 240 / 81015.6 15.2 14.1
2015-Jul-23 14:32N 46°34' W 084°42'610.2
2015-Jul-23 14:00N 46°30' W 084°36'612.9 170 / 41015.6 15.9 14.0
2015-Jul-23 13:33N 46°28' W 084°29'8 4.9
2015-Jul-23 12:00N 46°30' W 084°18'2 3.9 110 / 41015.4 13.7 14.0
2015-Jul-23 11:33N 46°28' W 084°17'610.3
2015-Jul-23 11:00N 46°24' W 084°12'3 6.9 310 / 41014.7 11.3 14.0
2015-Jul-23 10:33N 46°21' W 084°12'5 8.9
2015-Jul-23 10:00N 46°18' W 084°06'3 6.8 270 / 41014.7 11.0 13.7
2015-Jul-23 09:33N 46°15' W 084°06'3 5.4
2015-Jul-23 09:00N 46°12' W 084°06'715.3 340 / 41014.0 12.9 14.7
2015-Jul-23 08:33N 46°06' W 084°01'814.1
2015-Jul-23 08:00N 46°00' W 083°54'2 5.5 280 / 101014.0 13.7 14.3
2015-Jul-23 07:33N 45°58' W 083°53'1312.8
2015-Jul-23 06:33N 45°47' W 083°43'  

Dump ship's entire track history